Time;durP1;ratioP1;P1;durP2;ratioP2;P2;SDS_P1;SDS_P2;PMS_P1;PMS_P2;Temp;Humidity;BMP_temperature;BMP_pressure;BME280_temperature;BME280_humidity;BME280_pressure;Samples;Min_cycle;Max_cycle;Signal;HPM_P1;HPM_P2
2023/07/12 00:01:16;;;;;;;7.55;2.90;;;23.20;99.90;;;;;;5032865;28;20045;-38
2023/07/12 00:03:42;;;;;;;4.43;2.83;;;23.20;99.90;;;;;;5032906;28;20084;-40
2023/07/12 00:06:20;;;;;;;4.28;2.70;;;23.20;99.90;;;;;;5031780;28;20061;-36
2023/07/12 00:08:46;;;;;;;5.28;2.67;;;23.20;99.90;;;;;;5032626;28;20022;-36
2023/07/12 00:11:18;;;;;;;4.03;2.70;;;23.20;99.90;;;;;;5032575;28;20032;-36
2023/07/12 00:13:44;;;;;;;4.30;2.70;;;23.20;99.90;;;;;;5032705;28;20025;-35
2023/07/12 00:16:29;;;;;;;4.60;2.70;;;23.20;99.90;;;;;;5032628;28;20028;-36
2023/07/12 00:18:56;;;;;;;3.88;2.70;;;23.20;99.90;;;;;;5032247;28;20026;-39
2023/07/12 00:21:25;;;;;;;2.92;2.38;;;23.20;99.90;;;;;;5032672;28;20017;-36
2023/07/12 00:23:58;;;;;;;7.22;2.55;;;23.20;99.90;;;;;;5032637;28;20021;-37
2023/07/12 00:26:33;;;;;;;5.20;2.73;;;23.20;99.90;;;;;;5032567;28;20025;-37
2023/07/12 00:29:00;;;;;;;5.05;2.78;;;23.20;99.90;;;;;;5032058;28;20160;-39
2023/07/12 00:31:26;;;;;;;4.38;2.58;;;23.20;99.90;;;;;;5032319;28;20025;-37
2023/07/12 00:33:52;;;;;;;4.60;2.28;;;23.20;99.90;;;;;;5032177;28;20026;-38
2023/07/12 00:36:22;;;;;;;5.05;2.50;;;23.10;99.90;;;;;;5032288;28;20025;-36
2023/07/12 00:38:48;;;;;;;3.60;2.60;;;23.10;99.90;;;;;;5031847;28;20021;-40
2023/07/12 00:41:40;;;;;;;4.82;2.40;;;23.10;99.90;;;;;;5032117;28;20092;-38
2023/07/12 00:44:10;;;;;;;4.80;2.30;;;23.10;99.90;;;;;;5032129;28;20025;-36
2023/07/12 00:46:47;;;;;;;3.35;2.28;;;23.10;99.90;;;;;;5032113;28;20032;-38
2023/07/12 00:49:14;;;;;;;4.38;2.83;;;23.10;99.90;;;;;;5031700;28;20025;-38
2023/07/12 00:52:00;;;;;;;4.00;2.35;;;23.10;99.90;;;;;;5031936;28;20365;-38
2023/07/12 00:54:46;;;;;;;4.40;2.70;;;23.10;99.90;;;;;;5031832;28;20040;-37
2023/07/12 00:57:12;;;;;;;4.50;2.22;;;23.10;99.90;;;;;;5031950;28;20488;-38
2023/07/12 00:59:37;;;;;;;3.15;2.25;;;23.10;99.90;;;;;;5031570;28;20066;-37
2023/07/12 01:02:03;;;;;;;4.63;2.40;;;23.10;99.90;;;;;;5031755;28;20021;-37
2023/07/12 01:04:36;;;;;;;4.25;2.58;;;23.10;99.90;;;;;;5031584;28;20036;-37
2023/07/12 01:07:03;;;;;;;4.72;2.50;;;23.10;99.90;;;;;;5031725;28;20104;-36
2023/07/12 01:09:28;;;;;;;3.97;2.60;;;23.10;99.90;;;;;;5031536;28;20028;-36
2023/07/12 01:11:56;;;;;;;3.60;1.90;;;23.10;99.90;;;;;;5031643;28;20029;-37
2023/07/12 01:14:21;;;;;;;4.78;2.38;;;23.10;99.90;;;;;;5031487;28;20076;-39
2023/07/12 01:16:55;;;;;;;5.15;2.60;;;23.10;99.90;;;;;;5031482;28;20029;-38
2023/07/12 01:19:20;;;;;;;3.03;2.37;;;23.10;99.90;;;;;;5031004;28;20502;-37
2023/07/12 01:21:49;;;;;;;3.47;2.20;;;23.10;99.90;;;;;;5031614;28;20026;-36
2023/07/12 01:24:16;;;;;;;4.63;2.47;;;23.10;99.90;;;;;;5031730;28;20035;-36
2023/07/12 01:26:51;;;;;;;3.10;2.15;;;23.10;99.90;;;;;;5031452;28;20033;-40
2023/07/12 01:29:16;;;;;;;4.53;2.38;;;23.10;99.90;;;;;;5031130;28;20048;-37
2023/07/12 01:31:44;;;;;;;3.55;2.40;;;23.10;99.90;;;;;;5031293;28;20480;-38
2023/07/12 01:34:10;;;;;;;4.10;2.10;;;23.10;99.90;;;;;;5031363;28;20035;-39
2023/07/12 01:36:36;;;;;;;3.83;2.15;;;23.10;99.90;;;;;;5031228;28;20030;-36
2023/07/12 01:39:04;;;;;;;3.40;2.10;;;23.10;99.90;;;;;;5030973;28;20037;-38
2023/07/12 01:41:30;;;;;;;3.92;2.17;;;23.10;99.90;;;;;;5031248;28;20026;-36
2023/07/12 01:43:56;;;;;;;4.00;2.20;;;23.10;99.90;;;;;;5031095;28;20018;-36
2023/07/12 01:46:22;;;;;;;4.22;2.47;;;23.10;99.90;;;;;;5031399;28;20366;-36
2023/07/12 01:48:48;;;;;;;4.18;2.10;;;23.10;99.90;;;;;;5031126;28;20075;-38
2023/07/12 01:51:15;;;;;;;3.00;1.80;;;23.00;99.90;;;;;;5031080;28;20018;-37
2023/07/12 01:53:41;;;;;;;3.55;2.17;;;23.10;99.90;;;;;;5030975;28;20033;-38
2023/07/12 01:56:06;;;;;;;4.03;2.10;;;23.10;99.90;;;;;;5031123;28;20021;-37
2023/07/12 01:58:32;;;;;;;2.97;1.98;;;23.10;99.90;;;;;;5031436;28;20033;-38
2023/07/12 02:00:59;;;;;;;3.38;2.35;;;23.10;99.90;;;;;;5031101;28;20056;-37
2023/07/12 02:03:25;;;;;;;2.97;1.83;;;23.10;99.90;;;;;;5031006;28;20021;-36
2023/07/12 02:05:52;;;;;;;3.95;1.83;;;23.10;99.90;;;;;;5031016;28;20029;-39
2023/07/12 02:08:17;;;;;;;4.65;2.08;;;23.10;99.90;;;;;;5030993;28;20033;-37
2023/07/12 02:10:43;;;;;;;3.17;2.17;;;23.10;99.90;;;;;;5030761;28;20510;-36
2023/07/12 02:13:09;;;;;;;5.32;2.33;;;23.10;99.90;;;;;;5030902;28;20072;-36
2023/07/12 02:15:35;;;;;;;3.17;2.03;;;23.10;99.90;;;;;;5030878;28;20034;-36
2023/07/12 02:18:01;;;;;;;3.63;2.03;;;23.00;99.90;;;;;;5031050;28;20026;-36
2023/07/12 02:20:27;;;;;;;3.53;1.95;;;23.00;99.90;;;;;;5030265;23;20051;-40
2023/07/12 02:22:53;;;;;;;2.60;1.80;;;23.10;99.90;;;;;;4991065;28;20073;-38
2023/07/12 02:25:20;;;;;;;4.13;2.00;;;23.00;99.90;;;;;;4991853;28;20038;-39
2023/07/12 02:27:47;;;;;;;3.55;2.17;;;23.00;99.90;;;;;;4991423;28;20026;-39
2023/07/12 02:30:22;;;;;;;3.50;2.42;;;23.00;99.90;;;;;;5002161;28;20025;-39
2023/07/12 02:32:48;;;;;;;3.72;2.03;;;23.00;99.90;;;;;;5015028;28;20451;-40
2023/07/12 02:35:18;;;;;;;5.18;2.10;;;23.00;99.90;;;;;;5014725;28;20392;-41
2023/07/12 02:37:43;;;;;;;4.28;2.00;;;23.00;99.90;;;;;;5014686;28;20101;-38
2023/07/12 02:40:10;;;;;;;4.65;1.88;;;23.00;99.90;;;;;;5014371;28;20098;-41
2023/07/12 02:42:36;;;;;;;3.60;1.90;;;23.00;99.90;;;;;;5014654;28;20025;-39
2023/07/12 02:45:03;;;;;;;3.63;1.77;;;23.00;99.90;;;;;;5014973;28;20054;-40
2023/07/12 02:47:28;;;;;;;2.88;1.83;;;23.00;99.90;;;;;;5014628;28;20030;-41
2023/07/12 02:49:54;;;;;;;2.63;1.88;;;23.00;99.90;;;;;;5014319;28;20499;-42
2023/07/12 02:52:19;;;;;;;2.53;1.58;;;23.00;99.90;;;;;;5014416;28;20040;-40
2023/07/12 02:54:45;;;;;;;2.97;1.70;;;23.00;99.90;;;;;;5014244;28;20081;-40
2023/07/12 02:57:13;;;;;;;4.05;2.20;;;23.00;99.90;;;;;;5014375;28;20099;-40
2023/07/12 02:59:39;;;;;;;4.85;1.85;;;23.00;99.90;;;;;;5014194;28;20130;-38
2023/07/12 03:02:07;;;;;;;3.72;1.90;;;23.00;99.90;;;;;;5014242;28;20516;-41
2023/07/12 03:04:33;;;;;;;2.95;1.70;;;23.00;99.90;;;;;;5014204;28;20049;-41
2023/07/12 03:06:58;;;;;;;2.03;1.60;;;23.00;99.90;;;;;;5014130;28;20065;-37
2023/07/12 03:09:24;;;;;;;2.00;1.60;;;23.00;99.90;;;;;;5013714;28;20079;-40
2023/07/12 03:11:50;;;;;;;5.05;1.92;;;23.00;99.90;;;;;;5014123;28;20373;-40
2023/07/12 03:14:18;;;;;;;5.45;1.90;;;23.00;99.90;;;;;;5013960;28;20488;-40
2023/07/12 03:16:43;;;;;;;4.82;2.03;;;23.00;99.90;;;;;;5013946;28;20061;-42
2023/07/12 03:19:09;;;;;;;4.72;1.75;;;23.00;99.90;;;;;;5013611;28;20512;-41
2023/07/12 03:21:35;;;;;;;6.05;2.13;;;23.00;99.90;;;;;;5013878;28;20022;-39
2023/07/12 03:24:01;;;;;;;5.50;1.65;;;22.90;99.90;;;;;;5013903;28;20032;-39
2023/07/12 03:26:27;;;;;;;2.70;1.70;;;22.90;99.90;;;;;;5013939;28;20018;-40
2023/07/12 03:28:52;;;;;;;2.45;2.00;;;23.00;99.90;;;;;;5013610;28;20546;-40
2023/07/12 03:31:18;;;;;;;2.78;1.83;;;23.00;99.90;;;;;;5013659;28;20021;-41
2023/07/12 03:33:47;;;;;;;4.10;1.60;;;22.90;99.90;;;;;;5013640;28;20397;-40
2023/07/12 03:36:14;;;;;;;3.60;1.48;;;22.90;99.90;;;;;;5013624;28;20401;-40
2023/07/12 03:38:40;;;;;;;2.80;1.52;;;22.90;99.90;;;;;;5013491;28;20101;-39
2023/07/12 03:41:09;;;;;;;2.92;1.80;;;22.90;99.90;;;;;;5013176;28;20097;-39
2023/07/12 03:43:35;;;;;;;3.05;1.75;;;22.90;99.90;;;;;;5013545;28;20030;-41
2023/07/12 03:46:02;;;;;;;3.50;1.75;;;22.90;99.90;;;;;;5013400;28;20026;-43
2023/07/12 03:48:28;;;;;;;4.63;1.85;;;22.90;99.90;;;;;;5013408;28;20088;-41
2023/07/12 03:50:57;;;;;;;5.03;1.90;;;22.90;99.90;;;;;;5013011;28;20025;-40
2023/07/12 03:53:24;;;;;;;4.05;1.95;;;22.90;99.90;;;;;;5013220;28;20037;-40
2023/07/12 03:55:50;;;;;;;3.05;1.67;;;22.90;99.90;;;;;;5013222;28;20037;-40
2023/07/12 03:58:19;;;;;;;3.17;1.50;;;22.90;99.90;;;;;;5013272;28;20025;-40
2023/07/12 04:00:47;;;;;;;3.20;1.50;;;22.90;99.90;;;;;;5013053;28;20456;-39
2023/07/12 04:03:13;;;;;;;2.92;1.60;;;22.90;99.90;;;;;;5013148;28;20042;-41
2023/07/12 04:05:41;;;;;;;3.97;2.00;;;22.90;99.90;;;;;;5012944;28;20475;-41
2023/07/12 04:08:09;;;;;;;4.53;1.80;;;22.90;99.90;;;;;;5013300;28;20022;-41
2023/07/12 04:10:35;;;;;;;2.75;1.60;;;22.90;99.90;;;;;;5012775;28;20407;-41
2023/07/12 04:13:02;;;;;;;3.97;1.67;;;22.90;99.90;;;;;;5013071;28;20029;-38
2023/07/12 04:15:27;;;;;;;6.10;1.77;;;22.90;99.90;;;;;;5012997;28;20099;-40
2023/07/12 04:17:53;;;;;;;4.95;1.80;;;22.90;99.90;;;;;;5012997;28;20477;-41
2023/07/12 04:20:19;;;;;;;4.38;1.88;;;22.90;99.90;;;;;;5012359;28;20033;-40
2023/07/12 04:22:51;;;;;;;3.13;1.55;;;22.90;99.90;;;;;;5012883;28;20018;-41
2023/07/12 04:25:18;;;;;;;4.45;1.90;;;22.90;99.90;;;;;;5012758;28;20419;-40
2023/07/12 04:27:44;;;;;;;3.45;1.80;;;22.90;99.90;;;;;;5012739;28;20472;-41
2023/07/12 04:30:15;;;;;;;2.70;1.70;;;22.80;99.90;;;;;;5012524;28;20121;-40
2023/07/12 04:32:41;;;;;;;4.70;1.75;;;22.80;99.90;;;;;;5012484;28;20076;-41
2023/07/12 04:35:06;;;;;;;3.10;1.70;;;22.80;99.90;;;;;;5012441;28;20538;-40
2023/07/12 04:37:32;;;;;;;2.88;1.95;;;22.90;99.90;;;;;;4995138;28;20045;-40
2023/07/12 04:39:58;;;;;;;3.65;1.90;;;22.80;99.90;;;;;;5012136;28;20026;-40
2023/07/12 04:42:24;;;;;;;4.85;1.88;;;22.80;99.90;;;;;;5012434;28;20473;-40
2023/07/12 04:44:49;;;;;;;5.47;1.80;;;22.80;99.90;;;;;;5012400;28;20072;-41
2023/07/12 04:47:16;;;;;;;3.38;1.92;;;22.80;99.90;;;;;;5012238;28;20026;-40
2023/07/12 04:49:43;;;;;;;6.25;2.60;;;22.80;99.90;;;;;;5011984;28;20034;-39
2023/07/12 04:52:11;;;;;;;12.82;2.72;;;22.80;99.90;;;;;;5011751;28;20104;-40
2023/07/12 04:54:39;;;;;;;15.50;2.80;;;22.70;99.90;;;;;;5012091;28;20481;-40
2023/07/12 04:57:05;;;;;;;9.43;2.80;;;22.70;99.90;;;;;;5012154;28;20499;-40
2023/07/12 04:59:31;;;;;;;6.97;2.75;;;22.60;99.90;;;;;;5011846;28;20054;-39
2023/07/12 05:01:57;;;;;;;13.60;3.30;;;22.70;99.90;;;;;;5011982;28;20069;-39
2023/07/12 05:04:22;;;;;;;7.35;2.83;;;22.60;99.90;;;;;;5011951;28;20362;-38
2023/07/12 05:06:48;;;;;;;9.73;2.97;;;22.70;99.90;;;;;;5012010;28;20118;-37
2023/07/12 05:09:13;;;;;;;5.32;2.80;;;22.70;99.90;;;;;;5011836;28;20111;-40
2023/07/12 05:11:39;;;;;;;8.20;2.60;;;22.70;99.90;;;;;;5011957;28;20045;-40
2023/07/12 05:14:05;;;;;;;9.93;2.80;;;22.70;99.90;;;;;;5011807;28;20029;-38
2023/07/12 05:16:30;;;;;;;5.82;2.70;;;22.70;99.90;;;;;;5011787;28;20033;-38
2023/07/12 05:18:56;;;;;;;10.60;2.83;;;22.80;99.90;;;;;;5011656;28;20033;-38
2023/07/12 05:21:24;;;;;;;8.07;2.83;;;22.80;99.90;;;;;;5011653;28;20112;-39
2023/07/12 05:23:49;;;;;;;7.15;2.78;;;22.70;99.90;;;;;;5011709;28;20445;-41
2023/07/12 05:26:15;;;;;;;9.40;2.80;;;22.80;99.90;;;;;;5011735;28;20121;-37
2023/07/12 05:28:41;;;;;;;5.15;2.70;;;22.70;99.90;;;;;;5011622;28;20104;-42
2023/07/12 05:31:12;;;;;;;7.22;2.80;;;22.80;99.90;;;;;;5011334;28;20494;-39
2023/07/12 05:33:41;;;;;;;7.05;2.75;;;22.80;99.90;;;;;;5011839;28;20161;-39
2023/07/12 05:36:07;;;;;;;7.63;2.20;;;22.80;99.90;;;;;;5011565;28;20115;-37
2023/07/12 05:38:32;;;;;;;6.90;2.85;;;22.80;99.90;;;;;;5011696;28;20074;-38
2023/07/12 05:40:59;;;;;;;8.00;2.70;;;22.80;99.90;;;;;;5011394;28;20018;-40
2023/07/12 05:43:25;;;;;;;4.95;2.40;;;22.80;99.90;;;;;;5011499;28;20021;-39
2023/07/12 05:45:51;;;;;;;6.75;2.58;;;22.80;99.90;;;;;;5011387;28;20414;-40
2023/07/12 05:48:17;;;;;;;7.05;2.90;;;22.80;99.90;;;;;;5011706;28;20034;-40
2023/07/12 05:50:43;;;;;;;10.32;2.80;;;22.80;99.90;;;;;;5011174;28;20432;-39
2023/07/12 05:53:09;;;;;;;6.47;2.97;;;22.80;99.90;;;;;;5011754;28;20071;-40
2023/07/12 05:55:35;;;;;;;10.55;2.90;;;22.80;99.90;;;;;;5011281;28;20026;-39
2023/07/12 05:58:01;;;;;;;7.47;2.63;;;22.80;99.90;;;;;;5011405;28;20455;-41
2023/07/12 06:00:27;;;;;;;5.95;2.70;;;22.80;99.90;;;;;;5011093;28;20395;-39
2023/07/12 06:02:53;;;;;;;4.95;2.60;;;22.80;99.90;;;;;;5011315;28;20094;-40
2023/07/12 06:05:18;;;;;;;4.82;2.22;;;22.80;99.90;;;;;;5013404;28;20066;-39
2023/07/12 06:07:45;;;;;;;10.38;2.53;;;22.80;99.90;;;;;;5015644;28;20144;-40
2023/07/12 06:10:11;;;;;;;3.85;2.25;;;22.80;99.90;;;;;;5015023;28;20030;-39
2023/07/12 06:12:37;;;;;;;4.95;2.25;;;22.80;99.90;;;;;;5015151;28;20092;-40
2023/07/12 06:15:03;;;;;;;5.88;2.40;;;22.80;99.90;;;;;;5015262;28;20113;-39
2023/07/12 06:17:29;;;;;;;6.72;2.75;;;22.80;99.90;;;;;;5015114;28;20030;-39
2023/07/12 06:19:54;;;;;;;4.72;2.47;;;22.80;99.90;;;;;;5014688;28;20507;-39
2023/07/12 06:22:20;;;;;;;5.15;2.47;;;22.80;99.90;;;;;;5015035;28;20026;-39
2023/07/12 06:24:46;;;;;;;4.93;2.63;;;22.80;99.90;;;;;;5014983;28;20050;-40
2023/07/12 06:27:13;;;;;;;5.85;2.72;;;22.80;99.90;;;;;;5015084;28;20060;-37
2023/07/12 06:29:39;;;;;;;9.07;3.10;;;22.80;99.90;;;;;;5014608;28;20040;-40
2023/07/12 06:32:05;;;;;;;6.13;2.63;;;22.80;99.90;;;;;;5014830;28;20105;-39
2023/07/12 06:34:31;;;;;;;6.47;2.65;;;22.80;99.90;;;;;;5014739;28;20125;-40
2023/07/12 06:36:57;;;;;;;3.30;2.30;;;22.80;99.90;;;;;;5014735;28;20026;-39
2023/07/12 06:39:22;;;;;;;6.57;2.60;;;22.80;99.90;;;;;;5014442;28;20105;-40
2023/07/12 06:41:49;;;;;;;5.03;2.35;;;22.80;99.90;;;;;;5014657;28;20028;-39
2023/07/12 06:44:15;;;;;;;3.90;2.63;;;22.90;99.90;;;;;;5014575;28;20060;-40
2023/07/12 06:46:40;;;;;;;4.68;2.47;;;22.80;99.90;;;;;;5014563;28;20454;-43
2023/07/12 06:49:06;;;;;;;4.68;2.50;;;22.80;99.90;;;;;;5014318;28;20085;-42
2023/07/12 06:51:31;;;;;;;5.18;2.55;;;22.80;99.90;;;;;;5014498;28;20026;-40
2023/07/12 06:53:57;;;;;;;4.65;2.40;;;22.90;99.90;;;;;;5014385;28;20033;-39
2023/07/12 06:56:23;;;;;;;4.70;2.50;;;22.90;99.90;;;;;;5014406;28;20049;-38
2023/07/12 06:58:48;;;;;;;3.78;2.30;;;22.90;99.90;;;;;;5014248;28;20037;-41
2023/07/12 07:01:14;;;;;;;2.90;2.25;;;22.90;99.90;;;;;;5014392;28;20076;-40
2023/07/12 07:03:40;;;;;;;4.38;2.10;;;22.90;99.90;;;;;;5014347;28;20034;-40
2023/07/12 07:06:05;;;;;;;3.50;2.22;;;22.80;99.90;;;;;;5014229;28;20036;-40
2023/07/12 07:08:32;;;;;;;4.85;2.38;;;22.90;99.90;;;;;;5014140;28;20029;-40
2023/07/12 07:10:57;;;;;;;4.57;2.50;;;22.90;99.90;;;;;;5013766;28;20026;-39
2023/07/12 07:13:24;;;;;;;4.75;2.63;;;22.90;99.90;;;;;;5014102;28;20485;-38
2023/07/12 07:15:50;;;;;;;4.47;2.30;;;22.90;99.90;;;;;;4995857;28;20038;-40
2023/07/12 07:18:16;;;;;;;5.30;2.42;;;22.90;99.90;;;;;;5014021;28;20030;-40
2023/07/12 07:20:43;;;;;;;3.85;2.42;;;22.90;99.90;;;;;;5013626;28;20037;-39
2023/07/12 07:23:10;;;;;;;11.25;4.20;;;22.90;99.90;;;;;;5013873;28;20432;-39
2023/07/12 07:25:37;;;;;;;12.45;3.85;;;22.90;99.90;;;;;;5013788;28;20045;-39
2023/07/12 07:28:03;;;;;;;9.07;3.70;;;22.90;99.90;;;;;;5013820;28;20034;-40
2023/07/12 07:30:29;;;;;;;12.50;3.92;;;22.90;99.90;;;;;;5013638;28;20378;-40
2023/07/12 07:32:55;;;;;;;7.03;3.80;;;22.90;99.90;;;;;;5013850;28;20030;-39
2023/07/12 07:35:21;;;;;;;13.00;4.10;;;23.00;99.90;;;;;;5013548;28;20084;-40
2023/07/12 07:37:48;;;;;;;8.00;3.55;;;23.00;99.90;;;;;;5013617;28;20034;-39
2023/07/12 07:40:14;;;;;;;8.30;3.88;;;23.00;99.90;;;;;;5013217;28;20042;-37
2023/07/12 07:42:40;;;;;;;8.57;3.90;;;23.00;99.90;;;;;;5013569;28;20065;-38
2023/07/12 07:45:06;;;;;;;9.25;3.55;;;23.00;99.90;;;;;;5013434;28;20022;-39
2023/07/12 07:47:32;;;;;;;8.85;4.00;;;23.00;99.90;;;;;;5013594;28;20102;-39
2023/07/12 07:49:58;;;;;;;6.10;3.15;;;23.00;99.90;;;;;;5013261;28;20105;-38
2023/07/12 07:52:24;;;;;;;6.53;2.97;;;23.00;99.90;;;;;;5013532;28;20033;-40
2023/07/12 07:54:50;;;;;;;9.63;3.35;;;23.00;99.90;;;;;;5013107;28;20034;-38
2023/07/12 07:57:15;;;;;;;7.53;3.15;;;23.00;99.90;;;;;;5013287;28;20072;-40
2023/07/12 07:59:41;;;;;;;7.78;3.20;;;23.00;99.90;;;;;;5013041;28;20037;-38
2023/07/12 08:02:10;;;;;;;5.90;3.20;;;23.00;99.90;;;;;;5013221;28;20049;-40
2023/07/12 08:04:36;;;;;;;7.45;3.35;;;23.00;99.90;;;;;;5013462;28;20314;-39
2023/07/12 08:07:03;;;;;;;5.38;3.03;;;23.00;99.90;;;;;;5013103;28;20433;-39
2023/07/12 08:09:29;;;;;;;5.97;3.33;;;23.00;99.90;;;;;;5012652;28;20026;-40
2023/07/12 08:11:55;;;;;;;4.32;3.00;;;23.00;99.90;;;;;;5012987;28;20037;-39
2023/07/12 08:14:20;;;;;;;4.88;3.15;;;23.00;99.90;;;;;;5012822;28;20100;-39
2023/07/12 08:16:48;;;;;;;4.72;2.92;;;23.00;99.90;;;;;;5013410;28;20077;-39
2023/07/12 08:19:15;;;;;;;4.50;2.80;;;23.00;99.90;;;;;;5012462;28;20156;-38
2023/07/12 08:21:41;;;;;;;6.43;2.97;;;23.00;99.90;;;;;;5013376;28;20033;-38
2023/07/12 08:24:06;;;;;;;5.68;3.08;;;23.00;99.90;;;;;;5012806;28;20030;-38
2023/07/12 08:26:32;;;;;;;4.43;3.20;;;23.00;99.90;;;;;;5012622;28;20018;-40
2023/07/12 08:28:58;;;;;;;6.20;2.95;;;23.00;99.90;;;;;;5011985;28;20085;-39
2023/07/12 08:31:23;;;;;;;4.25;2.80;;;23.00;99.90;;;;;;5012647;28;20389;-42
2023/07/12 08:33:49;;;;;;;3.58;2.72;;;23.00;99.90;;;;;;5012698;28;20077;-39
2023/07/12 08:36:16;;;;;;;4.50;2.80;;;23.00;99.90;;;;;;5012482;28;20556;-39
2023/07/12 08:38:42;;;;;;;11.30;3.08;;;23.00;99.90;;;;;;5012384;28;20534;-39
2023/07/12 08:41:13;;;;;;;3.33;2.70;;;23.00;99.90;;;;;;5012378;28;20022;-39
2023/07/12 08:43:39;;;;;;;3.42;2.70;;;23.00;99.90;;;;;;5012479;28;20069;-40
2023/07/12 08:46:25;;;;;;;5.65;2.80;;;23.00;99.90;;;;;;5012359;28;20029;-40
2023/07/12 08:48:54;;;;;;;3.50;2.75;;;23.00;99.90;;;;;;5012669;28;20033;-37
2023/07/12 08:51:29;;;;;;;3.53;2.47;;;23.00;99.90;;;;;;5012135;28;20485;-40
2023/07/12 08:53:55;;;;;;;5.35;2.60;;;23.00;99.90;;;;;;5012215;28;20041;-39
2023/07/12 08:56:21;;;;;;;3.58;2.72;;;23.10;99.90;;;;;;5012237;28;20045;-38
2023/07/12 08:58:50;;;;;;;5.43;2.50;;;23.10;99.90;;;;;;5012258;28;20437;-40
2023/07/12 09:01:42;;;;;;;4.22;2.45;;;23.10;99.90;;;;;;5012011;28;20084;-41
2023/07/12 09:04:34;;;;;;;3.88;2.65;;;23.10;99.90;;;;;;5001689;28;20037;-37
2023/07/12 09:07:04;;;;;;;3.42;2.13;;;23.10;99.90;;;;;;5008343;28;20044;-38
2023/07/12 09:09:38;;;;;;;4.75;2.53;;;23.10;99.90;;;;;;5011703;28;20025;-39
2023/07/12 09:12:07;;;;;;;3.90;2.50;;;23.10;99.90;;;;;;5011839;28;20374;-39
2023/07/12 09:14:36;;;;;;;3.67;2.58;;;23.10;99.90;;;;;;5011760;28;20042;-39
2023/07/12 09:17:02;;;;;;;5.10;2.63;;;23.10;99.90;;;;;;5012081;28;20030;-39
2023/07/12 09:19:37;;;;;;;5.85;2.40;;;23.10;99.90;;;;;;5011449;28;20049;-37
2023/07/12 09:22:17;;;;;;;5.43;2.50;;;23.10;99.90;;;;;;5011881;28;20125;-38
2023/07/12 09:24:46;;;;;;;3.20;2.25;;;23.10;99.90;;;;;;5011934;28;20037;-40
2023/07/12 09:27:18;;;;;;;2.80;2.15;;;23.10;99.90;;;;;;5011701;28;20480;-38
2023/07/12 09:29:44;;;;;;;4.45;2.38;;;23.10;99.90;;;;;;5011347;28;20096;-39
2023/07/12 09:32:36;;;;;;;4.18;2.10;;;23.10;99.90;;;;;;5011685;28;20048;-40
2023/07/12 09:35:27;;;;;;;4.13;2.20;;;23.00;99.90;;;;;;5007963;28;20042;-38
2023/07/12 09:38:00;;;;;;;3.70;2.60;;;23.10;99.90;;;;;;4992563;28;20034;-40
2023/07/12 09:40:34;;;;;;;2.97;2.35;;;23.10;99.90;;;;;;4991482;28;20022;-38
2023/07/12 09:43:03;;;;;;;;;;;23.10;99.90;;;;;;4990894;28;20482;-40
2023/07/12 09:45:34;;;;;;;3.38;2.25;;;23.10;99.90;;;;;;4991785;28;20372;-37
2023/07/12 09:48:14;;;;;;;2.17;1.92;;;23.10;99.90;;;;;;4992316;28;20323;-36
2023/07/12 09:51:06;;;;;;;3.63;2.15;;;23.10;99.90;;;;;;4991644;28;20030;-40
2023/07/12 09:53:41;;;;;;;4.45;2.10;;;23.10;99.90;;;;;;4991754;28;20393;-39
2023/07/12 09:56:28;;;;;;;2.97;2.20;;;23.10;99.90;;;;;;4991814;28;20425;-37
2023/07/12 09:59:31;;;;;;;3.47;1.90;;;23.10;99.90;;;;;;4991700;28;20073;-39
2023/07/12 10:02:12;;;;;;;4.60;2.15;;;23.10;99.90;;;;;;4991603;28;20502;-37
2023/07/12 10:05:03;;;;;;;2.78;2.20;;;23.10;99.90;;;;;;4991774;28;20101;-40
2023/07/12 10:07:52;;;;;;;3.13;2.05;;;23.10;99.90;;;;;;4991759;28;20027;-39
2023/07/12 10:10:30;;;;;;;3.25;1.95;;;23.10;99.90;;;;;;4973919;28;20089;-37
2023/07/12 10:13:28;;;;;;;3.47;2.20;;;23.10;99.90;;;;;;4991615;28;20453;-40
2023/07/12 10:15:55;;;;;;;2.42;1.98;;;23.10;99.90;;;;;;4974197;28;20027;-37
2023/07/12 10:18:24;;;;;;;3.55;2.15;;;23.10;99.90;;;;;;4991929;28;20023;-40
2023/07/12 10:20:50;;;;;;;2.28;1.98;;;23.10;99.90;;;;;;4991128;28;20097;-40
2023/07/12 10:23:18;;;;;;;2.75;2.05;;;23.10;99.90;;;;;;4991733;28;20022;-40
2023/07/12 10:25:48;;;;;;;3.15;1.98;;;23.10;99.90;;;;;;4991389;28;20501;-39
2023/07/12 10:28:35;;;;;;;2.53;2.00;;;23.10;99.90;;;;;;4991490;28;20062;-37
2023/07/12 10:31:18;;;;;;;2.95;1.70;;;23.10;99.90;;;;;;4991147;28;20030;-40
2023/07/12 10:33:47;;;;;;;3.70;2.22;;;23.20;99.90;;;;;;4991550;28;20026;-37
2023/07/12 10:36:19;;;;;;;3.35;2.10;;;23.20;99.90;;;;;;4991389;28;20018;-40
2023/07/12 10:38:46;;;;;;;3.35;2.13;;;23.20;99.90;;;;;;4991435;28;20026;-38
2023/07/12 10:41:34;;;;;;;3.17;2.03;;;23.20;99.90;;;;;;4991312;28;20030;-40
2023/07/12 10:44:07;;;;;;;4.47;1.95;;;23.20;99.90;;;;;;4991566;28;20556;-41
2023/07/12 10:46:34;;;;;;;5.93;2.13;;;23.20;99.90;;;;;;4991363;28;20018;-39
2023/07/12 11:02:46;;;;;;;2.70;2.08;;;;;;;;;;5129294;27;20783;-38
2023/07/12 11:05:36;;;;;;;2.75;1.92;;;23.30;99.90;;;;;;5096364;22;20044;-40
2023/07/12 11:08:03;;;;;;;4.80;2.10;;;23.30;99.90;;;;;;5048626;28;20037;-40
2023/07/12 11:10:35;;;;;;;9.90;3.05;;;23.30;99.90;;;;;;5068112;28;20029;-39
2023/07/12 11:13:12;;;;;;;4.80;2.55;;;;;;;;;;5068221;28;20017;-40
2023/07/12 11:16:20;;;;;;;10.18;3.40;;;23.40;99.90;;;;;;5048168;28;20109;-39
2023/07/12 11:18:58;;;;;;;7.22;2.88;;;23.40;99.90;;;;;;5047916;28;20112;-41
2023/07/12 11:21:47;;;;;;;5.18;2.90;;;23.40;99.90;;;;;;5048194;28;20050;-37
2023/07/12 11:24:36;;;;;;;6.28;2.95;;;23.40;99.90;;;;;;5047930;28;20037;-40
2023/07/12 11:27:07;;;;;;;9.35;3.40;;;23.30;99.90;;;;;;5047942;28;20431;-40
2023/07/12 11:29:36;;;;;;;4.25;2.75;;;23.30;99.90;;;;;;5047915;28;20029;-40
2023/07/12 11:32:22;;;;;;;6.60;2.95;;;23.30;99.90;;;;;;5047967;28;20100;-40
2023/07/12 11:34:49;;;;;;;5.63;3.00;;;23.30;99.90;;;;;;5047923;28;20468;-39
2023/07/12 11:37:34;;;;;;;4.22;2.50;;;23.30;99.90;;;;;;5047880;28;20025;-39
2023/07/12 11:40:00;;;;;;;4.47;3.20;;;23.30;99.90;;;;;;5030007;28;20021;-39
2023/07/12 11:42:27;;;;;;;4.85;2.90;;;23.30;99.90;;;;;;5047750;28;20025;-40
2023/07/12 11:45:11;;;;;;;5.10;3.00;;;23.30;99.90;;;;;;5047528;28;20026;-37
2023/07/12 11:47:51;;;;;;;5.65;3.40;;;23.30;99.90;;;;;;5047751;28;20252;-39
2023/07/12 11:50:22;;;;;;;3.92;2.78;;;23.30;99.90;;;;;;5047341;28;20492;-38
2023/07/12 11:52:48;;;;;;;4.78;2.85;;;23.30;99.90;;;;;;5048020;28;20459;-39
2023/07/12 11:55:20;;;;;;;6.13;2.90;;;23.30;99.90;;;;;;5047242;28;20471;-39
2023/07/12 11:57:47;;;;;;;5.85;2.90;;;23.30;99.90;;;;;;5047415;28;20075;-41
2023/07/12 12:00:27;;;;;;;4.78;2.47;;;23.30;99.90;;;;;;5047200;28;20021;-40
2023/07/12 12:02:59;;;;;;;5.40;2.65;;;23.30;99.90;;;;;;5038698;28;20029;-37
2023/07/12 12:05:33;;;;;;;5.10;3.05;;;23.30;99.90;;;;;;5033911;28;20377;-40
2023/07/12 12:08:00;;;;;;;6.03;2.60;;;23.30;99.90;;;;;;5033973;28;20471;-39
2023/07/12 12:10:28;;;;;;;5.85;3.00;;;23.30;99.90;;;;;;5033687;28;20025;-39
2023/07/12 12:12:55;;;;;;;4.05;2.80;;;23.30;99.90;;;;;;5033970;28;20087;-42
2023/07/12 12:15:24;;;;;;;6.70;2.80;;;23.40;99.90;;;;;;5033752;28;20104;-40
2023/07/12 12:17:51;;;;;;;6.20;2.42;;;23.30;99.90;;;;;;5033893;28;20021;-40
2023/07/12 12:20:22;;;;;;;4.18;2.42;;;23.40;99.90;;;;;;5033405;28;20029;-40
2023/07/12 12:22:57;;;;;;;4.55;2.63;;;23.30;99.90;;;;;;5033666;28;20056;-37
2023/07/12 12:25:26;;;;;;;4.35;2.60;;;23.30;99.90;;;;;;5033575;28;20036;-40
2023/07/12 12:27:52;;;;;;;4.93;2.97;;;23.30;99.90;;;;;;5033599;28;20473;-40
2023/07/12 12:30:21;;;;;;;3.15;2.55;;;23.40;99.90;;;;;;5033303;28;20065;-40
2023/07/12 12:33:24;;;;;;;2.88;2.38;;;23.40;99.90;;;;;;5033399;28;20021;-39
2023/07/12 12:35:55;;;;;;;4.72;2.88;;;23.30;99.90;;;;;;5033499;28;20169;-39
2023/07/12 12:38:25;;;;;;;2.92;2.45;;;23.40;99.90;;;;;;5033685;28;20104;-39
2023/07/12 12:41:01;;;;;;;3.33;2.47;;;23.40;99.90;;;;;;5033203;28;20029;-39
2023/07/12 12:43:27;;;;;;;3.20;2.47;;;23.40;99.90;;;;;;5033278;28;20041;-39
2023/07/12 12:45:54;;;;;;;5.28;2.63;;;23.40;99.90;;;;;;5033423;28;20377;-37
2023/07/12 12:48:20;;;;;;;2.53;2.33;;;23.40;99.90;;;;;;5033315;28;20029;-39
2023/07/12 12:50:48;;;;;;;3.28;2.50;;;23.40;99.90;;;;;;5033164;28;20103;-40
2023/07/12 12:53:14;;;;;;;4.07;2.50;;;23.40;99.90;;;;;;5033076;28;20018;-38
2023/07/12 12:55:40;;;;;;;4.35;2.50;;;23.40;99.90;;;;;;5033117;28;20083;-40
2023/07/12 12:58:12;;;;;;;4.10;2.47;;;23.40;99.90;;;;;;5033066;28;20013;-40
2023/07/12 13:14:38;;;;;;;4.10;2.38;;;;;;;;;;5064838;28;20371;-41
2023/07/12 13:17:09;;;;;;;4.35;2.47;;;23.50;99.90;;;;;;5073281;23;20490;-40
2023/07/12 13:19:34;;;;;;;4.20;2.85;;;23.50;99.90;;;;;;5125959;28;20039;-40
2023/07/12 13:22:00;;;;;;;6.53;2.42;;;23.50;99.90;;;;;;5128955;28;20020;-39
2023/07/12 13:24:25;;;;;;;4.38;2.35;;;23.50;99.90;;;;;;5129307;28;20023;-40
2023/07/12 13:26:51;;;;;;;5.90;3.35;;;23.40;99.90;;;;;;5129314;28;20493;-39